METAR Data
IDs: Format: Raw Decoded Include TAF

Data at: 0123 UTC 24 Sep 2018

KHEQ 240110Z AUTO 21003KT 10SM CLR 23/02 A2982 RMK AO2
KHEQ 240055Z AUTO 21003KT 7SM CLR 23/02 A2982 RMK AO2
KHEQ 240035Z AUTO 20006KT 10SM CLR 26/01 A2982 RMK AO2
KHEQ 240015Z AUTO 25004KT 10SM CLR 28/M01 A2981 RMK AO2
KHEQ 232350Z AUTO 26006KT 10SM CLR 31/M05 A2981 RMK AO2
KHEQ 232330Z AUTO 25007KT 10SM CLR 33/M04 A2981 RMK AO2
KHEQ 232310Z AUTO 24006KT 199V259 10SM CLR 35/M03 A2982 RMK AO2
KHEQ 232250Z AUTO 26007KT 10SM CLR 35/M05 A2981 RMK AO2
KHEQ 232230Z AUTO 23010G14KT 10SM CLR 35/M01 A2982 RMK AO2
KHEQ 232210Z AUTO 20012G17KT 10SM CLR 35/M01 A2982 RMK AO2
KHEQ 232150Z AUTO 24008G15KT 10SM CLR 35/M01 A2983 RMK AO2
KHEQ 232130Z AUTO 19004KT 10SM CLR 35/00 A2983 RMK AO2
KHEQ 232110Z AUTO 15009G16KT 10SM CLR 35/01 A2983 RMK AO2
KHEQ 232050Z AUTO 17008G15KT 10SM CLR 35/01 A2985 RMK AO2
KHEQ 232030Z AUTO 20007KT 159V229 10SM CLR 35/01 A2985 RMK AO2
KHEQ 232010Z AUTO 17013G16KT 10SM CLR 35/01 A2986 RMK AO2
KHEQ 231950Z AUTO 16011G16KT 119V189 10SM CLR 35/03 A2987 RMK AO2
KHEQ 231930Z AUTO 16010G15KT 119V199 10SM CLR 35/03 A2988 RMK AO2
KHEQ 231910Z AUTO 16007KT 129V199 10SM CLR 35/03 A2990 RMK AO2
KHEQ 231850Z AUTO 19007KT 5SM HZ CLR 35/05 A2991 RMK AO2
KHEQ 231830Z AUTO 16007G14KT 7SM CLR 34/03 A2992 RMK AO2
KHEQ 231810Z AUTO 17008KT 7SM CLR 33/05 A2992 RMK AO2
KHEQ 231750Z AUTO 17005KT 149V209 10SM CLR 33/05 A2993 RMK AO2
KHEQ 231730Z AUTO 20003KT 10SM CLR 31/05 A2995 RMK AO2
KHEQ 231710Z AUTO 10004KT 10SM CLR 30/06 A2995 RMK AO2
KHEQ 231650Z AUTO 12005KT 10SM CLR 29/05 A2996 RMK AO2
KHEQ 231630Z AUTO 12003KT 10SM CLR 27/05 A2997 RMK AO2
KHEQ 231610Z AUTO 00000KT 10SM CLR 26/05 A2997 RMK AO2
KHEQ 231550Z AUTO 00000KT 10SM CLR 25/07 A2998 RMK AO2
KHEQ 231530Z AUTO 28003KT 10SM CLR 23/07 A2998 RMK AO2
KHEQ 231510Z AUTO 00000KT 10SM CLR 20/07 A2998 RMK AO2
KHEQ 231450Z AUTO 29003KT 10SM CLR 18/06 A2998 RMK AO2
KHEQ 231430Z AUTO 00000KT 10SM CLR 16/07 A2997 RMK AO2
KHEQ 231410Z AUTO 25004KT 10SM CLR 13/06 A2998 RMK AO2
KHEQ 231350Z AUTO 00000KT 10SM CLR 12/06 A2997 RMK AO2
KHEQ 231330Z AUTO 00000KT 10SM CLR 10/05 A2997 RMK AO2
KHEQ 231310Z AUTO 00000KT 10SM CLR 08/05 A2997 RMK AO2
KHEQ 231250Z AUTO 00000KT 10SM CLR 08/04 A2997 RMK AO2
KHEQ 231230Z AUTO 23003KT 10SM CLR 08/04 A2997 RMK AO2
KHEQ 231210Z AUTO 00000KT 10SM CLR 08/04 A2997 RMK AO2
KHEQ 231150Z AUTO 21003KT 10SM CLR 08/04 A2997 RMK AO2
KHEQ 231130Z AUTO 21003KT 10SM CLR 08/03 A2998 RMK AO2
KHEQ 231110Z AUTO 24003KT 10SM CLR 08/03 A2999 RMK AO2
KHEQ 231050Z AUTO 25004KT 10SM CLR 10/04 A2998 RMK AO2
KHEQ 231030Z AUTO 27005KT 10SM CLR 11/04 A2998 RMK AO2
KHEQ 231010Z AUTO 00000KT 10SM CLR 11/04 A2999 RMK AO2
KHEQ 230950Z AUTO 26008KT 10SM CLR 12/05 A2999 RMK AO2
KHEQ 230930Z AUTO 26005KT 10SM CLR 12/03 A2999 RMK AO2
KHEQ 230910Z AUTO 22005KT 10SM CLR 13/04 A2999 RMK AO2
KHEQ 230850Z AUTO 21006KT 10SM CLR 13/04 A2999 RMK AO2
KHEQ 230830Z AUTO 00000KT 10SM CLR 15/05 A3000 RMK AO2
KHEQ 230810Z AUTO 21005KT 10SM CLR 15/03 A3000 RMK AO2
KHEQ 230750Z AUTO 21007KT 10SM CLR 16/03 A3000 RMK AO2
KHEQ 230730Z AUTO 21007KT 10SM CLR 16/03 A3001 RMK AO2
KHEQ 230710Z AUTO 21009KT 10SM CLR 16/03 A3001 RMK AO2
KHEQ 230650Z AUTO 21008KT 10SM CLR 16/03 A3001 RMK AO2
KHEQ 230630Z AUTO 21008KT 10SM CLR 16/04 A3002 RMK AO2
KHEQ 230610Z AUTO 20007KT 10SM CLR 16/05 A3003 RMK AO2
KHEQ 230550Z AUTO 20007KT 10SM CLR 16/05 A3003 RMK AO2
KHEQ 230530Z AUTO 20006KT 10SM CLR 16/05 A3003 RMK AO2
KHEQ 230510Z AUTO 20007KT 10SM CLR 16/05 A3003 RMK AO2
KHEQ 230450Z AUTO 20007KT 10SM CLR 17/06 A3003 RMK AO2
KHEQ 230430Z AUTO 19008KT 10SM CLR 17/06 A3003 RMK AO2
KHEQ 230410Z AUTO 19008KT 10SM CLR 17/06 A3003 RMK AO2
KHEQ 230350Z AUTO 18006KT 10SM CLR 17/06 A3003 RMK AO2
KHEQ 230330Z AUTO 18007KT 10SM CLR 18/06 A3003 RMK AO2
KHEQ 230310Z AUTO 17008KT 10SM CLR 19/05 A3003 RMK AO2
KHEQ 230250Z AUTO 17009KT 10SM CLR 20/05 A3002 RMK AO2
KHEQ 230230Z AUTO 16011KT 10SM CLR 21/05 A3001 RMK AO2
KHEQ 230210Z AUTO 16009KT 10SM CLR 23/06 A3001 RMK AO2
KHEQ 230150Z AUTO 16011G15KT 10SM CLR 23/06 A3000 RMK AO2
KHEQ 230130Z AUTO 16012KT 10SM CLR 23/05 A2999 RMK AO2
KHEQ 230110Z AUTO 15014G19KT 10SM CLR 26/06 A2998 RMK AO2
KHEQ 230055Z AUTO 15014G20KT 10SM CLR 26/06 A2998 RMK AO2
KHEQ 230035Z AUTO 14011KT 10SM CLR 26/03 A2998 RMK AO2
KHEQ 230015Z AUTO 13006KT 10SM CLR 29/02 A2998 RMK AO2
KHEQ 222350Z AUTO 13006KT 10SM CLR 30/00 A2998 RMK AO2
KHEQ 222330Z AUTO 14006KT 10SM CLR 31/00 A2998 RMK AO2
KHEQ 222310Z AUTO 15007KT 10SM CLR 32/00 A2998 RMK AO2
KHEQ 222250Z AUTO 13004KT 10SM CLR 33/00 A2999 RMK AO2
KHEQ 222230Z AUTO 17003KT 10SM CLR 33/00 A3000 RMK AO2
KHEQ 222210Z AUTO 00000KT 10SM CLR 33/01 A3000 RMK AO2
KHEQ 222150Z AUTO 14007KT 089V169 10SM CLR 33/01 A3001 RMK AO2
KHEQ 222130Z AUTO 00000KT 10SM CLR 35/01 A3001 RMK AO2
KHEQ 222110Z AUTO 24003KT 10SM CLR 33/01 A3002 RMK AO2
KHEQ 222055Z AUTO 15003KT 10SM CLR 33/02 A3003 RMK AO2
KHEQ 222035Z AUTO 16006KT 10SM CLR 33/02 A3004 RMK AO2
KHEQ 222015Z AUTO 22006KT 10SM CLR 32/04 A3005 RMK AO2
KHEQ 221950Z AUTO 23005KT 10SM CLR 31/05 A3006 RMK AO2
KHEQ 221930Z AUTO 20003KT 10SM CLR 30/06 A3007 RMK AO2
KHEQ 221910Z AUTO 19007KT 10SM CLR 30/07 A3008 RMK AO2
KHEQ 221850Z AUTO 20005KT 10SM CLR 29/07 A3009 RMK AO2
KHEQ 221830Z AUTO 22007G16KT 189V269 10SM CLR 27/07 A3010 RMK AO2
KHEQ 221810Z AUTO 19008G14KT 10SM CLR 27/08 A3011 RMK AO2
KHEQ 221750Z AUTO 20010G15KT 10SM CLR 26/08 A3012 RMK AO2
KHEQ 221730Z AUTO 19010G14KT 10SM CLR 26/08 A3014 RMK AO2
KHEQ 221710Z AUTO 19012KT 10SM CLR 25/08 A3014 RMK AO2
KHEQ 221650Z AUTO 19009G14KT 10SM CLR 23/08 A3015 RMK AO2
KHEQ 221630Z AUTO 19010G16KT 10SM CLR 23/09 A3015 RMK AO2
KHEQ 221610Z AUTO 19011G17KT 10SM CLR 21/07 A3016 RMK AO2
KHEQ 221550Z AUTO 19011G15KT 10SM CLR 20/07 A3016 RMK AO2
KHEQ 221530Z AUTO 20011G16KT 10SM CLR 18/07 A3017 RMK AO2
KHEQ 221510Z AUTO 19009G14KT 10SM CLR 17/07 A3017 RMK AO2
KHEQ 221450Z AUTO 19009G14KT 10SM CLR 16/07 A3018 RMK AO2
KHEQ 221430Z AUTO 19012G15KT 10SM CLR 15/08 A3017 RMK AO2
KHEQ 221410Z AUTO 17006KT 10SM CLR 13/07 A3018 RMK AO2
KHEQ 221350Z AUTO 17008KT 10SM CLR 12/08 A3018 RMK AO2
KHEQ 221330Z AUTO 16006KT 10SM CLR 10/07 A3018 RMK AO2